Airfield :
LOGIN :

Register | Disclaimer

   EN    FR    IT 

 










Legend :    VFR   Marginal VFR   IFR   Intensive IFR   Very Intensive IFR
Visi :
Ceiling :
>= 8 km
>= 3000ft
5 to 8 km
1000 to 3000 ft
1500m to 5 km
500 to 1000 ft
800 to 1500m
200 to 500 ft
< 800m
< 200 ft
Symbols :   Thunderstorms  Fog  Heavy snow  Heavy precipitations  Wind > 20 kt
SIGMETs :     Misc.  Thunderstorms  Icing  Turbulence  Mountain Waves  Volcanic Ashes







- Airport Elevation : 1470 ft
- IATA code : KLU


LOWK - Klagenfurt

CURRENT METAR :
  • 152220Z AUTO 32003KT 9999 FEW050 SCT090 17/14 Q1021

EXPIRED METARs :
  • 152150Z AUTO 33003KT 9999 BKN050 17/14 Q1021
  • 152120Z VRB01KT 9999 SCT070 18/14 Q1021 NOSIG
  • 152050Z VRB02KT 9999 FEW070 19/14 Q1020 NOSIG
  • 152020Z VRB01KT 9999 FEW070 19/14 Q1020 NOSIG
  • 151950Z VRB02KT 9999 FEW060 SCT100 20/14 Q1020 NOSIG

TAF TAF LOWK
Valid from the 15 at 18:00 until the 16 at 18:00 UTC


151715Z 1518/1618 VRB02KT 9999 FEW060 TX27/1615Z TN14/1604Z
PROB30
TEMPO 1602/1606 BKN008
No reported NOTAMs for that airfield.



MET'MAP, your aeronautical weather chart ! - Copyright ORBIFLY December 2007 - Disclaimer

ORBIFLY MET'MAP TEAM :

Programming & Development : Alexandra Zaïnal
Concept & Development : Baudouin d'Aumeries
Co-Development & Prog : Marc-Olivier Méhu
Technical & hardware support : Manuel Goepfert

Contact : metmap@orbifly.com




SOURCES & CREDITS :

   NOAA